createdAt,value
2018-05-17T00:02:08.111Z,100656.69
2018-05-17T00:04:36.477Z,100649.81
2018-05-17T00:07:04.049Z,100644.13
2018-05-17T00:09:32.567Z,100642.62
2018-05-17T00:12:00.921Z,100639.08
2018-05-17T00:14:29.329Z,100641.02
2018-05-17T00:16:57.680Z,100643.53
2018-05-17T00:19:26.093Z,100641.36
2018-05-17T00:21:54.445Z,100637.87
2018-05-17T00:24:22.068Z,100634.34
2018-05-17T00:26:49.648Z,100630.88
2018-05-17T00:29:18.118Z,100636.84
2018-05-17T00:31:46.506Z,100640.00
2018-05-17T00:34:14.085Z,100642.16
2018-05-17T00:36:42.413Z,100642.48
2018-05-17T00:39:09.993Z,100643.80
2018-05-17T00:41:37.621Z,100649.14
2018-05-17T00:44:05.207Z,100647.55
2018-05-17T00:46:33.508Z,100646.39
2018-05-17T00:49:01.085Z,100641.56
2018-05-17T00:51:28.671Z,100644.41
2018-05-17T00:53:56.305Z,100638.16
2018-05-17T00:56:24.793Z,100638.11
2018-05-17T00:58:52.374Z,100644.75
2018-05-17T01:01:19.955Z,100640.08
2018-05-17T01:03:47.569Z,100633.48
2018-05-17T01:06:15.161Z,100631.20
2018-05-17T01:08:43.609Z,100633.08
2018-05-17T01:11:11.192Z,100627.94
2018-05-17T01:13:39.662Z,100625.47
2018-05-17T01:16:07.244Z,100619.96
2018-05-17T01:18:35.726Z,100617.86
2018-05-17T01:21:03.300Z,100617.86
2018-05-17T01:23:31.671Z,100618.84
2018-05-17T01:25:59.290Z,100616.75
2018-05-17T01:28:26.869Z,100620.89
2018-05-17T01:30:55.136Z,100625.66
2018-05-17T01:33:22.717Z,100627.52
2018-05-17T01:35:50.336Z,100628.14
2018-05-17T01:38:25.724Z,100632.58
2018-05-17T01:40:53.340Z,100629.73
2018-05-17T01:43:20.925Z,100626.33
2018-05-17T01:45:48.548Z,100635.10
2018-05-17T01:48:16.128Z,100640.30
2018-05-17T01:50:43.753Z,100637.67
2018-05-17T01:53:12.124Z,100638.48
2018-05-17T01:55:40.492Z,100642.03
2018-05-17T01:58:08.957Z,100636.62
2018-05-17T02:00:36.532Z,100630.03
2018-05-17T02:03:04.121Z,100627.54
2018-05-17T02:05:31.709Z,100632.57
2018-05-17T02:07:59.283Z,100624.47
2018-05-17T02:10:26.864Z,100628.55
2018-05-17T02:12:54.442Z,100621.37
2018-05-17T02:15:22.024Z,100619.97
2018-05-17T02:17:49.656Z,100616.51
2018-05-17T02:20:17.229Z,100609.86
2018-05-17T02:22:44.815Z,100621.56
2018-05-17T02:25:13.407Z,100619.69
2018-05-17T02:27:40.984Z,100611.78
2018-05-17T02:30:08.565Z,100615.75
2018-05-17T02:32:36.161Z,100611.86
2018-05-17T02:35:03.747Z,100610.99
2018-05-17T02:37:31.334Z,100615.95
2018-05-17T02:39:58.917Z,100608.36
2018-05-17T02:42:26.497Z,100612.30
2018-05-17T02:44:54.076Z,100614.56
2018-05-17T02:47:22.361Z,100615.86
2018-05-17T02:49:49.980Z,100618.17
2018-05-17T02:52:17.559Z,100622.05
2018-05-17T02:54:45.148Z,100616.05
2018-05-17T02:57:12.742Z,100619.70
2018-05-17T02:59:40.326Z,100619.00
2018-05-17T03:02:07.949Z,100612.30
2018-05-17T03:04:35.525Z,100609.72
2018-05-17T03:07:03.112Z,100609.27
2018-05-17T03:09:30.685Z,100615.58
2018-05-17T03:11:59.037Z,100612.33
2018-05-17T03:14:26.653Z,100613.80
2018-05-17T03:16:54.369Z,100621.52
2018-05-17T03:19:22.908Z,100621.56
2018-05-17T03:21:51.438Z,100625.80
2018-05-17T03:24:19.023Z,100631.47
2018-05-17T03:26:46.608Z,100629.42
2018-05-17T03:29:14.969Z,100634.77
2018-05-17T03:31:43.329Z,100635.41
2018-05-17T03:34:11.696Z,100640.72
2018-05-17T03:36:40.176Z,100640.00
2018-05-17T03:39:07.761Z,100645.92
2018-05-17T03:41:35.421Z,100646.39
2018-05-17T03:44:03.813Z,100648.55
2018-05-17T03:46:32.226Z,100644.19
2018-05-17T03:48:59.768Z,100647.29
2018-05-17T03:51:28.045Z,100654.19
2018-05-17T03:53:55.694Z,100648.45
2018-05-17T03:56:23.237Z,100649.75
2018-05-17T03:58:51.721Z,100655.31
2018-05-17T04:01:30.922Z,100648.83
2018-05-17T04:04:10.369Z,100647.03
2018-05-17T04:06:42.505Z,100651.09
2018-05-17T04:09:10.788Z,100658.64
2018-05-17T04:11:38.369Z,100663.95
2018-05-17T04:14:06.777Z,100660.57
2018-05-17T04:16:35.194Z,100662.47
2018-05-17T04:19:03.731Z,100660.63
2018-05-17T04:21:32.257Z,100659.81
2018-05-17T04:23:59.876Z,100663.41
2018-05-17T04:26:28.145Z,100660.53
2018-05-17T04:28:55.766Z,100657.48
2018-05-17T04:31:23.352Z,100665.84
2018-05-17T04:33:51.847Z,100669.95
2018-05-17T04:36:19.429Z,100666.87
2018-05-17T04:38:47.953Z,100665.61
2018-05-17T04:41:15.539Z,100672.13
2018-05-17T04:43:43.812Z,100674.69
2018-05-17T04:46:11.398Z,100675.53
2018-05-17T04:48:38.977Z,100676.48
2018-05-17T04:51:06.552Z,100683.73
2018-05-17T04:53:34.132Z,100683.89
2018-05-17T04:56:01.710Z,100683.82
2018-05-17T04:58:29.292Z,100680.56
2018-05-17T05:00:56.881Z,100680.28
2018-05-17T05:03:24.467Z,100680.92
2018-05-17T05:05:52.045Z,100684.50
2018-05-17T05:08:19.626Z,100684.90
2018-05-17T05:10:47.208Z,100690.05
2018-05-17T05:13:14.829Z,100694.41
2018-05-17T05:15:42.409Z,100691.81
2018-05-17T05:18:10.172Z,100691.52
2018-05-17T05:20:37.756Z,100691.73
2018-05-17T05:23:05.332Z,100688.95
2018-05-17T05:25:32.953Z,100691.38
2018-05-17T05:28:00.591Z,100692.09
2018-05-17T05:30:29.007Z,100688.27
2018-05-17T05:32:56.594Z,100695.02
2018-05-17T05:35:24.172Z,100701.63
2018-05-17T05:37:52.653Z,100697.09
2018-05-17T05:40:20.933Z,100699.27
2018-05-17T05:45:21.369Z,100707.17
2018-05-17T05:47:49.778Z,100709.82
2018-05-17T05:50:17.388Z,100712.89
2018-05-17T05:52:45.005Z,100710.81
2018-05-17T05:55:12.584Z,100711.09
2018-05-17T05:57:41.097Z,100708.08
2018-05-17T06:00:08.720Z,100708.66
2018-05-17T06:02:37.013Z,100713.50
2018-05-17T06:05:04.633Z,100714.55
2018-05-17T06:07:32.212Z,100717.09
2018-05-17T06:09:59.788Z,100718.56
2018-05-17T06:12:27.368Z,100730.53
2018-05-17T06:14:55.099Z,100727.06
2018-05-17T06:17:22.726Z,100727.28
2018-05-17T06:19:50.364Z,100732.96
2018-05-17T06:22:17.937Z,100733.00
2018-05-17T06:24:46.428Z,100729.78
2018-05-17T06:27:14.049Z,100726.75
2018-05-17T06:29:41.625Z,100726.09
2018-05-17T06:32:09.976Z,100728.02
2018-05-17T06:34:38.450Z,100731.80
2018-05-17T06:37:06.837Z,100728.59
2018-05-17T06:39:35.145Z,100738.41
2018-05-17T06:42:02.732Z,100733.84
2018-05-17T06:44:31.124Z,100734.80
2018-05-17T06:46:59.589Z,100741.66
2018-05-17T06:49:27.212Z,100743.84
2018-05-17T06:51:55.666Z,100750.84
2018-05-17T06:54:23.992Z,100749.00
2018-05-17T06:56:52.276Z,100748.78
2018-05-17T06:59:20.640Z,100747.88
2018-05-17T07:01:49.037Z,100749.63
2018-05-17T07:04:16.769Z,100746.89
2018-05-17T07:06:45.149Z,100752.36
2018-05-17T07:09:13.565Z,100751.97
2018-05-17T07:11:41.227Z,100752.55
2018-05-17T07:14:09.734Z,100755.63
2018-05-17T07:16:38.091Z,100757.38
2018-05-17T07:19:05.762Z,100760.30
2018-05-17T07:21:34.183Z,100761.66
2018-05-17T07:24:02.556Z,100759.92
2018-05-17T07:26:30.961Z,100769.45
2018-05-17T07:28:59.351Z,100762.86
2018-05-17T07:31:27.798Z,100770.51
2018-05-17T07:33:56.264Z,100772.12
2018-05-17T07:36:23.877Z,100772.61
2018-05-17T07:38:52.313Z,100774.14
2018-05-17T07:41:20.861Z,100778.34
2018-05-17T07:43:48.478Z,100774.97
2018-05-17T07:46:16.899Z,100770.97
2018-05-17T07:48:45.169Z,100779.58
2018-05-17T07:51:13.593Z,100774.39
2018-05-17T07:53:41.226Z,100777.72
2018-05-17T07:56:09.572Z,100779.99
2018-05-17T07:58:37.149Z,100784.38
2018-05-17T08:01:05.653Z,100781.12
2018-05-17T08:03:33.320Z,100779.64
2018-05-17T08:06:00.889Z,100784.70
2018-05-17T08:08:28.465Z,100784.30
2018-05-17T08:10:56.045Z,100781.62
2018-05-17T08:13:23.617Z,100777.16
2018-05-17T08:15:51.193Z,100781.55
2018-05-17T08:18:18.772Z,100783.48
2018-05-17T08:20:46.353Z,100782.28
2018-05-17T08:23:13.936Z,100784.32
2018-05-17T08:25:41.565Z,100785.02
2018-05-17T08:28:09.140Z,100787.82
2018-05-17T08:30:36.785Z,100786.27
2018-05-17T08:33:04.365Z,100785.58
2018-05-17T08:35:31.941Z,100790.08
2018-05-17T08:37:59.518Z,100798.43
2018-05-17T08:40:27.186Z,100793.84
2018-05-17T08:42:54.802Z,100795.53
2018-05-17T08:45:22.382Z,100795.39
2018-05-17T08:47:50.013Z,100794.59
2018-05-17T08:50:17.589Z,100794.17
2018-05-17T08:52:45.201Z,100789.77
2018-05-17T08:55:13.570Z,100800.08
2018-05-17T08:57:41.192Z,100802.13
2018-05-17T09:00:08.770Z,100800.55
2018-05-17T09:02:36.341Z,100807.69
2018-05-17T09:05:04.785Z,100803.89
2018-05-17T09:07:32.370Z,100805.66
2018-05-17T09:10:00.808Z,100803.32
2018-05-17T09:12:28.375Z,100808.02
2018-05-17T09:14:56.901Z,100802.45
2018-05-17T09:17:24.537Z,100802.83
2018-05-17T09:19:52.157Z,100807.17
2018-05-17T09:22:19.757Z,100808.41
2018-05-17T09:24:47.380Z,100806.59
2018-05-17T09:27:15.784Z,100805.76
2018-05-17T09:29:43.364Z,100808.96
2018-05-17T09:32:11.797Z,100810.31
2018-05-17T09:34:39.369Z,100813.55
2018-05-17T09:37:07.856Z,100816.52
2018-05-17T09:39:35.433Z,100813.64
2018-05-17T09:42:03.905Z,100821.27
2018-05-17T09:44:31.478Z,100819.34
2018-05-17T09:46:59.057Z,100823.87
2018-05-17T09:49:26.625Z,100816.77
2018-05-17T09:51:56.284Z,100820.67
2018-05-17T09:54:24.637Z,100819.54
2018-05-17T09:56:52.209Z,100817.20
2018-05-17T09:59:19.786Z,100813.09
2018-05-17T10:01:48.257Z,100809.23
2018-05-17T10:04:15.845Z,100812.20
2018-05-17T10:06:43.417Z,100819.22
2018-05-17T10:09:10.984Z,100812.80
2018-05-17T10:11:39.453Z,100819.80
2018-05-17T10:14:07.021Z,100814.59
2018-05-17T10:16:34.593Z,100812.64
2018-05-17T10:19:02.169Z,100810.80
2018-05-17T10:21:29.745Z,100816.48
2018-05-17T10:23:57.321Z,100825.16
2018-05-17T10:26:24.905Z,100823.59
2018-05-17T10:28:52.477Z,100825.19
2018-05-17T10:31:20.058Z,100829.56
2018-05-17T10:33:47.668Z,100831.09
2018-05-17T10:36:17.048Z,100831.95
2018-05-17T10:38:45.394Z,100839.59
2018-05-17T10:41:13.073Z,100841.41
2018-05-17T10:43:40.683Z,100839.79
2018-05-17T10:46:09.053Z,100844.19
2018-05-17T10:48:36.629Z,100845.08
2018-05-17T10:51:04.205Z,100844.19
2018-05-17T10:53:31.772Z,100840.16
2018-05-17T10:56:00.118Z,100841.27
2018-05-17T10:58:27.708Z,100836.48
2018-05-17T11:00:55.284Z,100843.86
2018-05-17T11:03:22.861Z,100845.16
2018-05-17T11:05:50.447Z,100837.97
2018-05-17T11:08:18.813Z,100837.81
2018-05-17T11:10:46.434Z,100841.39
2018-05-17T11:13:14.799Z,100836.64
2018-05-17T11:15:42.377Z,100847.95
2018-05-17T11:18:09.953Z,100850.98
2018-05-17T11:20:37.534Z,100850.23
2018-05-17T11:23:05.192Z,100851.38
2018-05-17T11:25:32.860Z,100858.16
2018-05-17T11:28:00.529Z,100856.95
2018-05-17T11:30:28.100Z,100855.73
2018-05-17T11:32:55.745Z,100856.61
2018-05-17T11:35:23.301Z,100857.36
2018-05-17T11:37:51.645Z,100859.20
2018-05-17T11:40:19.220Z,100858.51
2018-05-17T11:42:46.800Z,100859.66
2018-05-17T11:45:20.713Z,100854.56
2018-05-17T11:47:48.289Z,100856.10
2018-05-17T11:50:15.861Z,100859.95
2018-05-17T11:52:44.341Z,100860.34
2018-05-17T11:55:11.916Z,100858.23
2018-05-17T11:57:39.586Z,100865.66
2018-05-17T12:00:07.142Z,100859.74
2018-05-17T12:02:34.953Z,100857.67
2018-05-17T12:05:02.534Z,100855.16
2018-05-17T12:07:30.136Z,100854.27
2018-05-17T12:09:57.726Z,100856.67
2018-05-17T12:12:25.379Z,100855.80
2018-05-17T12:14:52.976Z,100853.59
2018-05-17T12:17:20.657Z,100854.05
2018-05-17T12:19:48.453Z,100853.52
2018-05-17T12:22:15.965Z,100852.68
2018-05-17T12:24:43.545Z,100856.12
2018-05-17T12:27:11.121Z,100858.59
2018-05-17T12:29:38.697Z,100857.07
2018-05-17T12:32:06.275Z,100849.42
2018-05-17T12:34:33.852Z,100847.97
2018-05-17T12:37:01.499Z,100846.08
2018-05-17T12:39:29.025Z,100845.66
2018-05-17T12:41:56.588Z,100844.19
2018-05-17T12:44:24.169Z,100846.98
2018-05-17T12:46:52.656Z,100844.71
2018-05-17T12:49:20.224Z,100846.23
2018-05-17T12:51:48.480Z,100847.86
2018-05-17T12:54:16.050Z,100840.47
2018-05-17T12:56:43.634Z,100840.66
2018-05-17T12:59:12.112Z,100845.03
2018-05-17T13:01:39.687Z,100839.05
2018-05-17T13:04:07.265Z,100832.09
2018-05-17T13:06:34.845Z,100839.20
2018-05-17T13:09:02.421Z,100831.48
2018-05-17T13:11:29.996Z,100834.02
2018-05-17T13:13:57.616Z,100838.50
2018-05-17T13:16:25.313Z,100829.52
2018-05-17T13:18:52.909Z,100828.72
2018-05-17T13:21:20.480Z,100830.97
2018-05-17T13:23:48.165Z,100821.28
2018-05-17T13:26:16.441Z,100822.28
2018-05-17T13:28:44.917Z,100822.83
2018-05-17T13:31:12.501Z,100830.64
2018-05-17T13:33:40.990Z,100830.14
2018-05-17T13:36:09.339Z,100827.70
2018-05-17T13:38:37.707Z,100812.48
2018-05-17T13:41:05.968Z,100818.00
2018-05-17T13:43:34.338Z,100824.93
2018-05-17T13:46:01.945Z,100829.98
2018-05-17T13:48:30.321Z,100819.17
2018-05-17T13:50:58.819Z,100821.34
2018-05-17T13:53:27.224Z,100814.48
2018-05-17T13:55:54.845Z,100812.45
2018-05-17T13:58:22.417Z,100816.79
2018-05-17T14:00:50.801Z,100807.43
2018-05-17T14:03:18.462Z,100815.38
2018-05-17T14:05:46.037Z,100810.61
2018-05-17T14:08:13.606Z,100813.61
2018-05-17T14:10:42.141Z,100819.55
2018-05-17T14:13:09.713Z,100807.25
2018-05-17T14:15:37.388Z,100810.83
2018-05-17T14:18:04.901Z,100810.09
2018-05-17T14:20:32.481Z,100797.30
2018-05-17T14:23:00.153Z,100812.69
2018-05-17T14:25:27.761Z,100812.16
2018-05-17T14:27:55.343Z,100811.77
2018-05-17T14:30:23.055Z,100806.64
2018-05-17T14:32:50.625Z,100812.20
2018-05-17T14:35:18.207Z,100809.63
2018-05-17T14:37:45.787Z,100809.64
2018-05-17T14:40:14.272Z,100814.95
2018-05-17T14:42:42.589Z,100809.72
2018-05-17T14:45:10.165Z,100805.89
2018-05-17T14:47:37.738Z,100809.99
2018-05-17T14:50:05.308Z,100809.91
2018-05-17T14:52:32.886Z,100820.52
2018-05-17T14:55:00.462Z,100810.86
2018-05-17T14:57:28.033Z,100814.19
2018-05-17T14:59:55.611Z,100815.34
2018-05-17T15:02:23.231Z,100812.91
2018-05-17T15:04:50.805Z,100813.61
2018-05-17T15:07:18.381Z,100814.73
2018-05-17T15:09:45.961Z,100815.21
2018-05-17T15:12:13.539Z,100808.78
2018-05-17T15:14:41.149Z,100808.53
2018-05-17T15:17:08.724Z,100809.49
2018-05-17T15:19:36.409Z,100804.73
2018-05-17T15:22:04.881Z,100811.44
2018-05-17T15:24:32.545Z,100816.07
2018-05-17T15:27:00.106Z,100811.48
2018-05-17T15:29:27.682Z,100810.89
2018-05-17T15:31:55.263Z,100805.76
2018-05-17T15:34:22.837Z,100802.55
2018-05-17T15:36:50.449Z,100794.70
2018-05-17T15:39:19.009Z,100803.09
2018-05-17T15:41:46.654Z,100797.46
2018-05-17T15:44:14.251Z,100795.76
2018-05-17T15:46:41.823Z,100797.36
2018-05-17T15:49:09.396Z,100798.09
2018-05-17T15:51:37.669Z,100800.13
2018-05-17T15:54:05.246Z,100794.36
2018-05-17T15:56:32.824Z,100795.86
2018-05-17T15:59:00.403Z,100798.08
2018-05-17T16:01:27.977Z,100797.76
2018-05-17T16:03:55.549Z,100798.03
2018-05-17T16:06:23.121Z,100798.27
2018-05-17T16:08:50.701Z,100806.39
2018-05-17T16:11:18.317Z,100806.19
2018-05-17T16:13:45.884Z,100807.32
2018-05-17T16:16:13.499Z,100804.36
2018-05-17T16:18:41.080Z,100804.55
2018-05-17T16:21:08.659Z,100804.72
2018-05-17T16:23:36.238Z,100806.27
2018-05-17T16:26:03.809Z,100814.48
2018-05-17T16:28:31.381Z,100806.66
2018-05-17T16:30:58.972Z,100811.20
2018-05-17T16:33:26.548Z,100818.56
2018-05-17T16:35:54.122Z,100814.35
2018-05-17T16:38:21.702Z,100815.62
2018-05-17T16:40:49.282Z,100816.80
2018-05-17T16:43:16.925Z,100817.95
2018-05-17T16:45:44.501Z,100814.91
2018-05-17T16:48:12.105Z,100814.85
2018-05-17T16:50:39.676Z,100818.36
2018-05-17T16:53:07.332Z,100820.25
2018-05-17T16:55:34.900Z,100811.25
2018-05-17T16:58:02.477Z,100816.23
2018-05-17T17:00:30.265Z,100819.93
2018-05-17T17:02:57.854Z,100824.35
2018-05-17T17:05:25.495Z,100822.84
2018-05-17T17:07:53.042Z,100827.45
2018-05-17T17:10:20.640Z,100821.64
2018-05-17T17:12:48.231Z,100823.91
2018-05-17T17:15:15.865Z,100827.97
2018-05-17T17:17:43.457Z,100828.27
2018-05-17T17:20:11.053Z,100825.81
2018-05-17T17:22:38.633Z,100827.88
2018-05-17T17:25:06.309Z,100827.69
2018-05-17T17:27:33.938Z,100825.25
2018-05-17T17:30:01.513Z,100831.38
2018-05-17T17:32:29.097Z,100838.73
2018-05-17T17:34:56.686Z,100834.13
2018-05-17T17:37:24.266Z,100828.12
2018-05-17T17:39:52.689Z,100833.59
2018-05-17T17:42:20.270Z,100830.78
2018-05-17T17:44:48.321Z,100837.95
2018-05-17T17:47:15.989Z,100843.02
2018-05-17T17:49:43.605Z,100836.45
2018-05-17T17:52:11.185Z,100848.13
2018-05-17T17:54:38.805Z,100842.11
2018-05-17T17:57:06.387Z,100849.12
2018-05-17T17:59:33.966Z,100849.09
2018-05-17T18:02:01.565Z,100850.09
2018-05-17T18:04:29.225Z,100849.69
2018-05-17T18:06:56.810Z,100857.10
2018-05-17T18:09:24.503Z,100859.45
2018-05-17T18:11:52.153Z,100856.01
2018-05-17T18:14:20.645Z,100861.73
2018-05-17T18:16:48.356Z,100865.97
2018-05-17T18:19:15.933Z,100864.22
2018-05-17T18:21:43.514Z,100871.19
2018-05-17T18:24:11.875Z,100868.59
2018-05-17T18:26:39.884Z,100872.83
2018-05-17T18:29:07.905Z,100876.97
2018-05-17T18:31:35.745Z,100883.45
2018-05-17T18:34:03.625Z,100891.80
2018-05-17T18:36:31.888Z,100889.33
2018-05-17T18:38:59.957Z,100894.70
2018-05-17T18:41:27.788Z,100898.92
2018-05-17T18:43:57.110Z,100897.52
2018-05-17T18:46:26.178Z,100901.08
2018-05-17T18:48:54.505Z,100902.41
2018-05-17T18:51:22.218Z,100913.17
2018-05-17T18:53:49.793Z,100915.80
2018-05-17T18:56:17.626Z,100914.77
2018-05-17T18:58:45.389Z,100914.59
2018-05-17T19:01:13.005Z,100917.34
2018-05-17T19:03:40.617Z,100922.30
2018-05-17T19:06:08.349Z,100925.34
2018-05-17T19:08:37.284Z,100938.03
2018-05-17T19:11:04.887Z,100931.77
2018-05-17T19:13:32.464Z,100938.19
2018-05-17T19:16:01.338Z,100946.72
2018-05-17T19:18:29.381Z,100945.14
2018-05-17T19:20:57.192Z,100961.93
2018-05-17T19:23:24.921Z,100959.98
2018-05-17T19:25:53.476Z,100969.97
2018-05-17T19:28:21.061Z,100964.79
2018-05-17T19:30:48.642Z,100978.00
2018-05-17T19:33:16.225Z,100979.05
2018-05-17T19:35:44.672Z,100980.86
2018-05-17T19:38:13.237Z,100983.77
2018-05-17T19:40:40.882Z,100988.30
2018-05-17T19:43:08.513Z,100991.48
2018-05-17T19:45:36.263Z,100989.48
2018-05-17T19:48:03.849Z,100990.03
2018-05-17T19:50:31.573Z,100985.55
2018-05-17T19:52:59.600Z,100994.89
2018-05-17T19:55:28.641Z,100987.52
2018-05-17T19:57:56.918Z,100994.63
2018-05-17T20:00:24.536Z,100996.70
2018-05-17T20:02:52.405Z,101000.41
2018-05-17T20:05:20.306Z,100998.34
2018-05-17T20:07:47.941Z,101004.19
2018-05-17T20:10:15.518Z,101004.58
2018-05-17T20:12:43.094Z,101014.36
2018-05-17T20:15:10.671Z,101013.45
2018-05-17T20:17:38.292Z,101013.25
2018-05-17T20:20:06.674Z,101013.37
2018-05-17T20:22:35.157Z,101015.40
2018-05-17T20:25:02.737Z,101013.94
2018-05-17T20:27:30.365Z,101019.44
2018-05-17T20:29:57.947Z,101018.86
2018-05-17T20:32:25.526Z,101016.59
2018-05-17T20:34:53.796Z,101013.08
2018-05-17T20:37:22.279Z,101021.67
2018-05-17T20:39:49.887Z,101022.77
2018-05-17T20:42:17.523Z,101027.78
2018-05-17T20:44:45.079Z,101028.36
2018-05-17T20:47:12.796Z,101031.25
2018-05-17T20:49:41.393Z,101031.81
2018-05-17T20:52:09.774Z,101041.80
2018-05-17T20:54:37.352Z,101044.78
2018-05-17T20:57:04.994Z,101051.48
2018-05-17T20:59:32.573Z,101047.52
2018-05-17T21:02:00.154Z,101053.02
2018-05-17T21:04:27.739Z,101056.98
2018-05-17T21:06:55.334Z,101055.33
2018-05-17T21:09:22.914Z,101057.34
2018-05-17T21:11:50.578Z,101059.28
2018-05-17T21:14:18.153Z,101064.14
2018-05-17T21:16:45.844Z,101062.96
2018-05-17T21:19:13.466Z,101075.95
2018-05-17T21:21:41.072Z,101073.30
2018-05-17T21:24:08.654Z,101070.10
2018-05-17T21:26:36.345Z,101083.42
2018-05-17T21:29:03.959Z,101082.88
2018-05-17T21:31:31.658Z,101087.13
2018-05-17T21:33:59.265Z,101086.96
2018-05-17T21:36:26.850Z,101085.42
2018-05-17T21:38:54.430Z,101087.75
2018-05-17T21:41:22.160Z,101098.27
2018-05-17T21:43:49.747Z,101094.13
2018-05-17T21:46:18.138Z,101106.86
2018-05-17T21:48:45.722Z,101098.95
2018-05-17T21:51:13.382Z,101103.28
2018-05-17T21:53:40.960Z,101105.81
2018-05-17T21:56:08.573Z,101097.94
2018-05-17T21:58:37.022Z,101105.17
2018-05-17T22:01:05.379Z,101108.70
2018-05-17T22:03:32.993Z,101121.84
2018-05-17T22:06:00.569Z,101110.48
2018-05-17T22:08:28.188Z,101123.38
2018-05-17T22:10:55.765Z,101117.94
2018-05-17T22:13:23.338Z,101126.61
2018-05-17T22:15:50.918Z,101126.56
2018-05-17T22:18:18.589Z,101130.66
2018-05-17T22:20:46.168Z,101125.13
2018-05-17T22:23:13.869Z,101132.73
2018-05-17T22:25:41.505Z,101131.75
2018-05-17T22:28:09.120Z,101129.26
2018-05-17T22:30:36.702Z,101131.79
2018-05-17T22:33:04.329Z,101130.80
2018-05-17T22:35:32.743Z,101125.06
2018-05-17T22:38:00.321Z,101130.75
2018-05-17T22:40:27.897Z,101130.03
2018-05-17T22:42:55.477Z,101143.92
2018-05-17T22:45:23.061Z,101135.08
2018-05-17T22:47:50.637Z,101139.42
2018-05-17T22:50:18.241Z,101136.67
2018-05-17T22:52:45.818Z,101146.10
2018-05-17T22:55:13.395Z,101141.62
2018-05-17T22:57:52.869Z,101140.22
2018-05-17T23:00:20.449Z,101143.21
2018-05-17T23:02:48.933Z,101145.66
2018-05-17T23:05:17.202Z,101138.69
2018-05-17T23:07:45.685Z,101146.84
2018-05-17T23:10:13.265Z,101136.34
2018-05-17T23:12:41.758Z,101131.42
2018-05-17T23:15:10.149Z,101136.61
2018-05-17T23:17:37.762Z,101136.45
2018-05-17T23:20:05.341Z,101141.74
2018-05-17T23:22:37.338Z,101146.01
2018-05-17T23:25:04.965Z,101146.13
2018-05-17T23:27:33.305Z,101159.06
2018-05-17T23:30:01.574Z,101164.36
2018-05-17T23:32:29.917Z,101169.91
2018-05-17T23:34:58.316Z,101170.59
2018-05-17T23:37:26.577Z,101168.39
2018-05-17T23:39:54.884Z,101173.94
2018-05-17T23:42:23.361Z,101173.65
2018-05-17T23:44:51.845Z,101170.05
2018-05-17T23:47:19.429Z,101167.93
2018-05-17T23:49:47.009Z,101171.23
2018-05-17T23:52:14.593Z,101174.41
2018-05-17T23:54:42.945Z,101174.41
2018-05-17T23:57:11.333Z,101166.58
2018-05-17T23:59:39.733Z,101171.62
